sensor_id;sensor_type;location;lat;lon;timestamp;P1;durP1;ratioP1;P2;durP2;ratioP2
40883;SDS011;26602;50.930;6.940;2022-07-29T00:00:05;14.63;;;2.97;;
40883;SDS011;26602;50.930;6.940;2022-07-29T00:01:09;14.65;;;2.75;;
40883;SDS011;26602;50.930;6.940;2022-07-29T00:02:14;14.05;;;2.58;;
40883;SDS011;26602;50.930;6.940;2022-07-29T00:03:16;12.98;;;2.80;;
40883;SDS011;26602;50.930;6.940;2022-07-29T00:04:18;16.20;;;3.10;;
40883;SDS011;26602;50.930;6.940;2022-07-29T00:05:20;13.90;;;2.97;;
40883;SDS011;26602;50.930;6.940;2022-07-29T00:06:21;12.73;;;2.60;;
40883;SDS011;26602;50.930;6.940;2022-07-29T00:07:24;14.88;;;3.05;;
40883;SDS011;26602;50.930;6.940;2022-07-29T00:08:25;15.30;;;2.92;;
40883;SDS011;26602;50.930;6.940;2022-07-29T00:09:27;14.38;;;3.13;;
40883;SDS011;26602;50.930;6.940;2022-07-29T00:10:30;13.60;;;2.58;;
40883;SDS011;26602;50.930;6.940;2022-07-29T00:11:32;14.55;;;3.08;;
40883;SDS011;26602;50.930;6.940;2022-07-29T00:12:33;14.15;;;2.50;;
40883;SDS011;26602;50.930;6.940;2022-07-29T00:13:35;13.13;;;2.40;;
40883;SDS011;26602;50.930;6.940;2022-07-29T00:14:37;13.68;;;2.40;;
40883;SDS011;26602;50.930;6.940;2022-07-29T00:15:39;13.15;;;2.63;;
40883;SDS011;26602;50.930;6.940;2022-07-29T00:16:40;13.63;;;2.60;;
40883;SDS011;26602;50.930;6.940;2022-07-29T00:17:42;15.60;;;2.85;;
40883;SDS011;26602;50.930;6.940;2022-07-29T00:18:44;14.48;;;2.75;;
40883;SDS011;26602;50.930;6.940;2022-07-29T00:19:46;14.70;;;2.67;;
40883;SDS011;26602;50.930;6.940;2022-07-29T00:20:47;12.93;;;2.45;;
40883;SDS011;26602;50.930;6.940;2022-07-29T00:21:50;13.52;;;2.67;;
40883;SDS011;26602;50.930;6.940;2022-07-29T00:22:51;13.43;;;2.25;;
40883;SDS011;26602;50.930;6.940;2022-07-29T00:23:53;13.07;;;2.45;;
40883;SDS011;26602;50.930;6.940;2022-07-29T00:24:55;12.25;;;2.50;;
40883;SDS011;26602;50.930;6.940;2022-07-29T00:25:58;12.88;;;2.75;;
40883;SDS011;26602;50.930;6.940;2022-07-29T00:26:59;14.18;;;2.80;;
40883;SDS011;26602;50.930;6.940;2022-07-29T00:28:02;14.60;;;2.70;;
40883;SDS011;26602;50.930;6.940;2022-07-29T00:29:03;12.65;;;2.60;;
40883;SDS011;26602;50.930;6.940;2022-07-29T00:30:06;13.85;;;2.75;;
40883;SDS011;26602;50.930;6.940;2022-07-29T00:31:07;13.93;;;2.67;;
40883;SDS011;26602;50.930;6.940;2022-07-29T00:32:10;13.48;;;2.60;;
40883;SDS011;26602;50.930;6.940;2022-07-29T00:33:11;13.55;;;2.40;;
40883;SDS011;26602;50.930;6.940;2022-07-29T00:34:13;12.30;;;2.20;;
40883;SDS011;26602;50.930;6.940;2022-07-29T00:35:29;14.70;;;3.03;;
40883;SDS011;26602;50.930;6.940;2022-07-29T00:36:46;14.32;;;2.50;;
40883;SDS011;26602;50.930;6.940;2022-07-29T00:37:50;13.20;;;2.70;;
40883;SDS011;26602;50.930;6.940;2022-07-29T00:38:52;12.40;;;2.50;;
40883;SDS011;26602;50.930;6.940;2022-07-29T00:39:53;13.30;;;2.50;;
40883;SDS011;26602;50.930;6.940;2022-07-29T00:40:55;12.30;;;2.28;;
40883;SDS011;26602;50.930;6.940;2022-07-29T00:41:59;14.27;;;2.70;;
40883;SDS011;26602;50.930;6.940;2022-07-29T00:43:02;13.40;;;2.70;;
40883;SDS011;26602;50.930;6.940;2022-07-29T00:44:04;15.57;;;3.05;;
40883;SDS011;26602;50.930;6.940;2022-07-29T00:45:06;14.50;;;2.85;;
40883;SDS011;26602;50.930;6.940;2022-07-29T00:46:08;12.85;;;2.50;;
40883;SDS011;26602;50.930;6.940;2022-07-29T00:47:10;13.35;;;2.63;;
40883;SDS011;26602;50.930;6.940;2022-07-29T00:48:12;13.43;;;2.50;;
40883;SDS011;26602;50.930;6.940;2022-07-29T00:49:14;12.75;;;2.30;;
40883;SDS011;26602;50.930;6.940;2022-07-29T00:50:16;13.90;;;2.72;;
40883;SDS011;26602;50.930;6.940;2022-07-29T00:51:18;13.40;;;2.30;;
40883;SDS011;26602;50.930;6.940;2022-07-29T00:52:20;14.15;;;2.70;;
40883;SDS011;26602;50.930;6.940;2022-07-29T00:53:21;12.75;;;2.63;;
40883;SDS011;26602;50.930;6.940;2022-07-29T00:54:24;12.63;;;2.42;;
40883;SDS011;26602;50.930;6.940;2022-07-29T00:55:27;14.48;;;2.60;;
40883;SDS011;26602;50.930;6.940;2022-07-29T00:56:29;13.25;;;2.45;;
40883;SDS011;26602;50.930;6.940;2022-07-29T00:57:32;12.90;;;2.65;;
40883;SDS011;26602;50.930;6.940;2022-07-29T00:58:34;14.32;;;2.50;;
40883;SDS011;26602;50.930;6.940;2022-07-29T00:59:36;14.27;;;2.60;;
40883;SDS011;26602;50.930;6.940;2022-07-29T01:00:40;11.88;;;2.13;;
40883;SDS011;26602;50.930;6.940;2022-07-29T01:01:43;13.63;;;2.13;;
40883;SDS011;26602;50.930;6.940;2022-07-29T01:02:44;13.60;;;2.75;;
40883;SDS011;26602;50.930;6.940;2022-07-29T01:03:48;14.50;;;2.78;;
40883;SDS011;26602;50.930;6.940;2022-07-29T01:04:49;14.57;;;2.58;;
40883;SDS011;26602;50.930;6.940;2022-07-29T01:05:51;12.70;;;2.40;;
40883;SDS011;26602;50.930;6.940;2022-07-29T01:06:53;14.63;;;2.80;;
40883;SDS011;26602;50.930;6.940;2022-07-29T01:07:56;13.57;;;2.67;;
40883;SDS011;26602;50.930;6.940;2022-07-29T01:08:59;13.30;;;2.50;;
40883;SDS011;26602;50.930;6.940;2022-07-29T01:10:01;13.88;;;2.53;;
40883;SDS011;26602;50.930;6.940;2022-07-29T01:11:03;12.75;;;2.30;;
40883;SDS011;26602;50.930;6.940;2022-07-29T01:12:05;13.95;;;2.33;;
40883;SDS011;26602;50.930;6.940;2022-07-29T01:13:09;12.30;;;2.33;;
40883;SDS011;26602;50.930;6.940;2022-07-29T01:14:12;13.45;;;2.33;;
40883;SDS011;26602;50.930;6.940;2022-07-29T01:15:13;12.60;;;2.42;;
40883;SDS011;26602;50.930;6.940;2022-07-29T01:16:18;10.68;;;2.17;;
40883;SDS011;26602;50.930;6.940;2022-07-29T01:17:24;13.35;;;2.40;;
40883;SDS011;26602;50.930;6.940;2022-07-29T01:18:28;11.40;;;2.17;;
40883;SDS011;26602;50.930;6.940;2022-07-29T01:19:33;11.75;;;2.15;;
40883;SDS011;26602;50.930;6.940;2022-07-29T01:20:51;14.10;;;2.58;;
40883;SDS011;26602;50.930;6.940;2022-07-29T01:21:57;12.73;;;2.50;;
40883;SDS011;26602;50.930;6.940;2022-07-29T01:23:13;12.80;;;2.65;;
40883;SDS011;26602;50.930;6.940;2022-07-29T01:25:48;13.15;;;2.67;;
40883;SDS011;26602;50.930;6.940;2022-07-29T01:26:56;13.13;;;2.45;;
40883;SDS011;26602;50.930;6.940;2022-07-29T01:28:06;13.68;;;2.60;;
40883;SDS011;26602;50.930;6.940;2022-07-29T01:29:17;12.95;;;2.53;;
40883;SDS011;26602;50.930;6.940;2022-07-29T01:30:19;15.00;;;2.50;;
40883;SDS011;26602;50.930;6.940;2022-07-29T01:31:25;12.45;;;2.38;;
40883;SDS011;26602;50.930;6.940;2022-07-29T01:32:28;13.20;;;2.60;;
40883;SDS011;26602;50.930;6.940;2022-07-29T01:33:33;13.70;;;2.67;;
40883;SDS011;26602;50.930;6.940;2022-07-29T01:34:50;13.10;;;2.67;;
40883;SDS011;26602;50.930;6.940;2022-07-29T01:35:54;13.77;;;2.22;;
40883;SDS011;26602;50.930;6.940;2022-07-29T01:36:57;13.40;;;2.40;;
40883;SDS011;26602;50.930;6.940;2022-07-29T01:38:05;13.30;;;2.28;;
40883;SDS011;26602;50.930;6.940;2022-07-29T01:39:08;12.70;;;2.47;;
40883;SDS011;26602;50.930;6.940;2022-07-29T01:40:16;12.57;;;2.63;;
40883;SDS011;26602;50.930;6.940;2022-07-29T01:41:19;12.83;;;2.47;;
40883;SDS011;26602;50.930;6.940;2022-07-29T01:42:24;13.85;;;2.40;;
40883;SDS011;26602;50.930;6.940;2022-07-29T01:43:27;13.20;;;2.50;;
40883;SDS011;26602;50.930;6.940;2022-07-29T01:44:32;12.80;;;2.42;;
40883;SDS011;26602;50.930;6.940;2022-07-29T01:45:37;12.18;;;2.40;;
40883;SDS011;26602;50.930;6.940;2022-07-29T01:46:41;13.70;;;2.63;;
40883;SDS011;26602;50.930;6.940;2022-07-29T01:47:44;13.35;;;2.50;;
40883;SDS011;26602;50.930;6.940;2022-07-29T01:48:48;13.82;;;2.30;;
40883;SDS011;26602;50.930;6.940;2022-07-29T01:49:51;12.18;;;2.40;;
40883;SDS011;26602;50.930;6.940;2022-07-29T01:50:56;13.80;;;2.40;;
40883;SDS011;26602;50.930;6.940;2022-07-29T01:51:59;13.38;;;2.20;;
40883;SDS011;26602;50.930;6.940;2022-07-29T01:53:03;12.80;;;2.30;;
40883;SDS011;26602;50.930;6.940;2022-07-29T01:54:07;12.52;;;2.20;;
40883;SDS011;26602;50.930;6.940;2022-07-29T01:55:11;12.68;;;2.50;;
40883;SDS011;26602;50.930;6.940;2022-07-29T01:56:14;12.73;;;2.22;;
40883;SDS011;26602;50.930;6.940;2022-07-29T01:57:18;12.82;;;2.45;;
40883;SDS011;26602;50.930;6.940;2022-07-29T01:58:21;12.27;;;2.30;;
40883;SDS011;26602;50.930;6.940;2022-07-29T01:59:24;12.75;;;2.47;;
40883;SDS011;26602;50.930;6.940;2022-07-29T02:00:28;13.10;;;2.63;;
40883;SDS011;26602;50.930;6.940;2022-07-29T02:01:32;13.13;;;2.47;;
40883;SDS011;26602;50.930;6.940;2022-07-29T02:02:34;10.70;;;2.03;;
40883;SDS011;26602;50.930;6.940;2022-07-29T02:03:37;12.48;;;2.47;;
40883;SDS011;26602;50.930;6.940;2022-07-29T02:04:39;13.48;;;2.33;;
40883;SDS011;26602;50.930;6.940;2022-07-29T02:05:42;12.05;;;2.25;;
40883;SDS011;26602;50.930;6.940;2022-07-29T02:06:44;11.80;;;2.03;;
40883;SDS011;26602;50.930;6.940;2022-07-29T02:07:46;10.68;;;2.10;;
40883;SDS011;26602;50.930;6.940;2022-07-29T02:08:48;12.50;;;2.40;;
40883;SDS011;26602;50.930;6.940;2022-07-29T02:09:51;12.48;;;2.40;;
40883;SDS011;26602;50.930;6.940;2022-07-29T02:10:53;12.95;;;2.20;;
40883;SDS011;26602;50.930;6.940;2022-07-29T02:11:57;11.57;;;2.15;;
40883;SDS011;26602;50.930;6.940;2022-07-29T02:12:59;10.43;;;2.13;;
40883;SDS011;26602;50.930;6.940;2022-07-29T02:14:08;13.57;;;2.22;;
40883;SDS011;26602;50.930;6.940;2022-07-29T02:15:11;12.50;;;2.42;;
40883;SDS011;26602;50.930;6.940;2022-07-29T02:16:15;11.38;;;2.20;;
40883;SDS011;26602;50.930;6.940;2022-07-29T02:17:19;11.82;;;2.20;;
40883;SDS011;26602;50.930;6.940;2022-07-29T02:18:23;12.63;;;2.25;;
40883;SDS011;26602;50.930;6.940;2022-07-29T02:19:25;12.25;;;2.35;;
40883;SDS011;26602;50.930;6.940;2022-07-29T02:20:29;11.63;;;2.15;;
40883;SDS011;26602;50.930;6.940;2022-07-29T02:21:31;11.43;;;2.28;;
40883;SDS011;26602;50.930;6.940;2022-07-29T02:22:35;12.50;;;2.20;;
40883;SDS011;26602;50.930;6.940;2022-07-29T02:23:37;13.50;;;2.42;;
40883;SDS011;26602;50.930;6.940;2022-07-29T02:24:40;12.85;;;2.45;;
40883;SDS011;26602;50.930;6.940;2022-07-29T02:25:42;12.07;;;2.17;;
40883;SDS011;26602;50.930;6.940;2022-07-29T02:26:45;11.93;;;2.50;;
40883;SDS011;26602;50.930;6.940;2022-07-29T02:27:50;12.15;;;2.15;;
40883;SDS011;26602;50.930;6.940;2022-07-29T02:29:06;11.80;;;2.03;;
40883;SDS011;26602;50.930;6.940;2022-07-29T02:30:16;12.23;;;2.20;;
40883;SDS011;26602;50.930;6.940;2022-07-29T02:31:21;12.82;;;2.10;;
40883;SDS011;26602;50.930;6.940;2022-07-29T02:32:24;13.07;;;2.15;;
40883;SDS011;26602;50.930;6.940;2022-07-29T02:33:27;13.05;;;2.53;;
40883;SDS011;26602;50.930;6.940;2022-07-29T02:34:30;12.70;;;2.35;;
40883;SDS011;26602;50.930;6.940;2022-07-29T02:35:32;11.38;;;2.10;;
40883;SDS011;26602;50.930;6.940;2022-07-29T02:36:34;12.38;;;2.25;;
40883;SDS011;26602;50.930;6.940;2022-07-29T02:37:36;13.13;;;2.20;;
40883;SDS011;26602;50.930;6.940;2022-07-29T02:38:37;12.63;;;2.22;;
40883;SDS011;26602;50.930;6.940;2022-07-29T02:39:53;11.63;;;2.22;;
40883;SDS011;26602;50.930;6.940;2022-07-29T02:40:56;12.73;;;2.20;;
40883;SDS011;26602;50.930;6.940;2022-07-29T02:41:58;12.00;;;1.80;;
40883;SDS011;26602;50.930;6.940;2022-07-29T02:43:02;12.45;;;2.10;;
40883;SDS011;26602;50.930;6.940;2022-07-29T02:44:06;11.88;;;1.90;;
40883;SDS011;26602;50.930;6.940;2022-07-29T02:45:10;13.18;;;2.30;;
40883;SDS011;26602;50.930;6.940;2022-07-29T02:46:13;12.55;;;2.35;;
40883;SDS011;26602;50.930;6.940;2022-07-29T02:47:19;11.82;;;2.05;;
40883;SDS011;26602;50.930;6.940;2022-07-29T02:48:22;11.32;;;2.03;;
40883;SDS011;26602;50.930;6.940;2022-07-29T02:49:29;11.48;;;2.28;;
40883;SDS011;26602;50.930;6.940;2022-07-29T02:50:34;11.88;;;2.35;;
40883;SDS011;26602;50.930;6.940;2022-07-29T02:51:40;13.57;;;2.28;;
40883;SDS011;26602;50.930;6.940;2022-07-29T02:52:44;11.38;;;2.00;;
40883;SDS011;26602;50.930;6.940;2022-07-29T02:53:46;12.60;;;2.38;;
40883;SDS011;26602;50.930;6.940;2022-07-29T02:54:51;11.57;;;2.08;;
40883;SDS011;26602;50.930;6.940;2022-07-29T02:55:55;11.93;;;2.15;;
40883;SDS011;26602;50.930;6.940;2022-07-29T02:56:58;12.60;;;2.45;;
40883;SDS011;26602;50.930;6.940;2022-07-29T02:58:00;12.13;;;2.22;;
40883;SDS011;26602;50.930;6.940;2022-07-29T02:59:04;13.35;;;2.30;;
40883;SDS011;26602;50.930;6.940;2022-07-29T03:00:07;10.90;;;2.03;;
40883;SDS011;26602;50.930;6.940;2022-07-29T03:01:11;12.15;;;2.30;;
40883;SDS011;26602;50.930;6.940;2022-07-29T03:02:12;12.02;;;1.88;;
40883;SDS011;26602;50.930;6.940;2022-07-29T03:03:17;11.13;;;2.08;;
40883;SDS011;26602;50.930;6.940;2022-07-29T03:04:19;13.52;;;2.25;;
40883;SDS011;26602;50.930;6.940;2022-07-29T03:05:22;12.00;;;2.10;;
40883;SDS011;26602;50.930;6.940;2022-07-29T03:06:24;12.73;;;2.30;;
40883;SDS011;26602;50.930;6.940;2022-07-29T03:07:27;10.65;;;2.03;;
40883;SDS011;26602;50.930;6.940;2022-07-29T03:08:28;11.68;;;1.90;;
40883;SDS011;26602;50.930;6.940;2022-07-29T03:09:31;10.52;;;1.90;;
40883;SDS011;26602;50.930;6.940;2022-07-29T03:10:33;12.90;;;2.03;;
40883;SDS011;26602;50.930;6.940;2022-07-29T03:11:36;13.30;;;2.20;;
40883;SDS011;26602;50.930;6.940;2022-07-29T03:12:38;12.25;;;2.20;;
40883;SDS011;26602;50.930;6.940;2022-07-29T03:13:40;13.32;;;2.35;;
40883;SDS011;26602;50.930;6.940;2022-07-29T03:14:42;13.20;;;2.38;;
40883;SDS011;26602;50.930;6.940;2022-07-29T03:15:44;9.00;;;1.90;;
40883;SDS011;26602;50.930;6.940;2022-07-29T03:16:46;12.13;;;2.05;;
40883;SDS011;26602;50.930;6.940;2022-07-29T03:17:48;11.02;;;1.95;;
40883;SDS011;26602;50.930;6.940;2022-07-29T03:18:51;11.50;;;1.95;;
40883;SDS011;26602;50.930;6.940;2022-07-29T03:19:54;11.02;;;2.00;;
40883;SDS011;26602;50.930;6.940;2022-07-29T03:20:55;11.38;;;2.08;;
40883;SDS011;26602;50.930;6.940;2022-07-29T03:21:58;11.93;;;2.15;;
40883;SDS011;26602;50.930;6.940;2022-07-29T03:22:59;11.35;;;2.00;;
40883;SDS011;26602;50.930;6.940;2022-07-29T03:24:01;12.00;;;1.90;;
40883;SDS011;26602;50.930;6.940;2022-07-29T03:25:07;10.45;;;1.77;;
40883;SDS011;26602;50.930;6.940;2022-07-29T03:26:09;10.38;;;1.90;;
40883;SDS011;26602;50.930;6.940;2022-07-29T03:27:10;12.48;;;1.88;;
40883;SDS011;26602;50.930;6.940;2022-07-29T03:28:13;10.90;;;2.03;;
40883;SDS011;26602;50.930;6.940;2022-07-29T03:29:14;12.35;;;2.10;;
40883;SDS011;26602;50.930;6.940;2022-07-29T03:30:16;10.10;;;1.80;;
40883;SDS011;26602;50.930;6.940;2022-07-29T03:31:19;11.35;;;1.80;;
40883;SDS011;26602;50.930;6.940;2022-07-29T03:32:20;11.70;;;2.00;;
40883;SDS011;26602;50.930;6.940;2022-07-29T03:33:22;12.55;;;2.00;;
40883;SDS011;26602;50.930;6.940;2022-07-29T03:34:25;11.93;;;2.33;;
40883;SDS011;26602;50.930;6.940;2022-07-29T03:35:27;12.13;;;2.17;;
40883;SDS011;26602;50.930;6.940;2022-07-29T03:36:29;10.70;;;2.22;;
40883;SDS011;26602;50.930;6.940;2022-07-29T03:37:32;11.35;;;2.20;;
40883;SDS011;26602;50.930;6.940;2022-07-29T03:38:33;12.98;;;1.92;;
40883;SDS011;26602;50.930;6.940;2022-07-29T03:39:38;10.43;;;2.10;;
40883;SDS011;26602;50.930;6.940;2022-07-29T03:40:40;11.65;;;1.85;;
40883;SDS011;26602;50.930;6.940;2022-07-29T03:41:45;12.45;;;2.10;;
40883;SDS011;26602;50.930;6.940;2022-07-29T03:42:47;9.98;;;1.73;;
40883;SDS011;26602;50.930;6.940;2022-07-29T03:43:51;11.32;;;1.98;;
40883;SDS011;26602;50.930;6.940;2022-07-29T03:44:52;11.20;;;1.83;;
40883;SDS011;26602;50.930;6.940;2022-07-29T03:45:55;12.82;;;2.10;;
40883;SDS011;26602;50.930;6.940;2022-07-29T03:46:57;11.88;;;2.00;;
40883;SDS011;26602;50.930;6.940;2022-07-29T03:48:03;11.43;;;2.00;;
40883;SDS011;26602;50.930;6.940;2022-07-29T03:49:06;10.80;;;1.75;;
40883;SDS011;26602;50.930;6.940;2022-07-29T03:50:12;11.23;;;2.00;;
40883;SDS011;26602;50.930;6.940;2022-07-29T03:51:14;10.55;;;2.13;;
40883;SDS011;26602;50.930;6.940;2022-07-29T03:52:17;11.15;;;1.98;;
40883;SDS011;26602;50.930;6.940;2022-07-29T03:53:18;13.70;;;2.22;;
40883;SDS011;26602;50.930;6.940;2022-07-29T03:54:20;13.27;;;2.22;;
40883;SDS011;26602;50.930;6.940;2022-07-29T03:55:22;11.57;;;2.17;;
40883;SDS011;26602;50.930;6.940;2022-07-29T03:56:24;9.57;;;1.90;;
40883;SDS011;26602;50.930;6.940;2022-07-29T03:57:27;11.10;;;2.00;;
40883;SDS011;26602;50.930;6.940;2022-07-29T03:58:30;12.38;;;2.03;;
40883;SDS011;26602;50.930;6.940;2022-07-29T03:59:32;13.38;;;2.05;;
40883;SDS011;26602;50.930;6.940;2022-07-29T04:00:35;10.23;;;1.70;;
40883;SDS011;26602;50.930;6.940;2022-07-29T04:01:37;11.88;;;1.85;;
40883;SDS011;26602;50.930;6.940;2022-07-29T04:02:40;12.73;;;2.20;;
40883;SDS011;26602;50.930;6.940;2022-07-29T04:03:45;12.00;;;2.22;;
40883;SDS011;26602;50.930;6.940;2022-07-29T04:04:47;10.85;;;1.92;;
40883;SDS011;26602;50.930;6.940;2022-07-29T04:05:58;9.73;;;1.80;;
40883;SDS011;26602;50.930;6.940;2022-07-29T04:07:00;9.40;;;1.90;;
40883;SDS011;26602;50.930;6.940;2022-07-29T04:08:03;10.60;;;1.83;;
40883;SDS011;26602;50.930;6.940;2022-07-29T04:09:04;11.18;;;1.80;;
40883;SDS011;26602;50.930;6.940;2022-07-29T04:10:06;10.00;;;1.70;;
40883;SDS011;26602;50.930;6.940;2022-07-29T04:11:08;11.23;;;2.03;;
40883;SDS011;26602;50.930;6.940;2022-07-29T04:12:10;11.85;;;1.90;;
40883;SDS011;26602;50.930;6.940;2022-07-29T04:13:11;12.82;;;2.08;;
40883;SDS011;26602;50.930;6.940;2022-07-29T04:14:13;9.50;;;1.70;;
40883;SDS011;26602;50.930;6.940;2022-07-29T04:15:14;11.63;;;2.10;;
40883;SDS011;26602;50.930;6.940;2022-07-29T04:16:17;9.93;;;1.80;;
40883;SDS011;26602;50.930;6.940;2022-07-29T04:17:19;9.48;;;1.88;;
40883;SDS011;26602;50.930;6.940;2022-07-29T04:18:20;9.52;;;1.60;;
40883;SDS011;26602;50.930;6.940;2022-07-29T04:19:22;11.75;;;2.00;;
40883;SDS011;26602;50.930;6.940;2022-07-29T04:20:23;12.55;;;2.10;;
40883;SDS011;26602;50.930;6.940;2022-07-29T04:21:27;9.48;;;1.80;;
40883;SDS011;26602;50.930;6.940;2022-07-29T04:22:28;9.90;;;1.65;;
40883;SDS011;26602;50.930;6.940;2022-07-29T04:23:31;11.55;;;2.00;;
40883;SDS011;26602;50.930;6.940;2022-07-29T04:24:33;9.68;;;1.90;;
40883;SDS011;26602;50.930;6.940;2022-07-29T04:25:39;11.20;;;1.75;;
40883;SDS011;26602;50.930;6.940;2022-07-29T04:26:40;11.23;;;2.00;;
40883;SDS011;26602;50.930;6.940;2022-07-29T04:27:44;11.27;;;2.00;;
40883;SDS011;26602;50.930;6.940;2022-07-29T04:29:00;11.30;;;1.80;;
40883;SDS011;26602;50.930;6.940;2022-07-29T04:30:03;8.15;;;1.70;;
40883;SDS011;26602;50.930;6.940;2022-07-29T04:31:05;10.70;;;1.90;;
40883;SDS011;26602;50.930;6.940;2022-07-29T04:32:07;11.27;;;2.10;;
40883;SDS011;26602;50.930;6.940;2022-07-29T04:33:09;11.20;;;1.95;;
40883;SDS011;26602;50.930;6.940;2022-07-29T04:34:10;11.68;;;2.00;;
40883;SDS011;26602;50.930;6.940;2022-07-29T04:35:13;12.02;;;2.00;;
40883;SDS011;26602;50.930;6.940;2022-07-29T04:36:14;11.75;;;1.80;;
40883;SDS011;26602;50.930;6.940;2022-07-29T04:37:17;11.23;;;1.88;;
40883;SDS011;26602;50.930;6.940;2022-07-29T04:38:19;10.55;;;1.77;;
40883;SDS011;26602;50.930;6.940;2022-07-29T04:39:22;10.88;;;2.05;;
40883;SDS011;26602;50.930;6.940;2022-07-29T04:40:23;10.50;;;1.90;;
40883;SDS011;26602;50.930;6.940;2022-07-29T04:41:25;10.57;;;1.70;;
40883;SDS011;26602;50.930;6.940;2022-07-29T04:42:26;10.27;;;1.80;;
40883;SDS011;26602;50.930;6.940;2022-07-29T04:43:28;11.73;;;2.13;;
40883;SDS011;26602;50.930;6.940;2022-07-29T04:44:29;9.90;;;1.60;;
40883;SDS011;26602;50.930;6.940;2022-07-29T04:45:32;11.95;;;2.03;;
40883;SDS011;26602;50.930;6.940;2022-07-29T04:46:33;9.02;;;1.70;;
40883;SDS011;26602;50.930;6.940;2022-07-29T04:47:35;10.02;;;1.83;;
40883;SDS011;26602;50.930;6.940;2022-07-29T04:48:36;10.30;;;1.63;;
40883;SDS011;26602;50.930;6.940;2022-07-29T04:49:39;9.15;;;1.60;;
40883;SDS011;26602;50.930;6.940;2022-07-29T04:50:40;11.70;;;1.90;;
40883;SDS011;26602;50.930;6.940;2022-07-29T04:51:42;8.30;;;1.58;;
40883;SDS011;26602;50.930;6.940;2022-07-29T04:52:45;10.18;;;1.60;;
40883;SDS011;26602;50.930;6.940;2022-07-29T04:53:47;9.80;;;1.77;;
40883;SDS011;26602;50.930;6.940;2022-07-29T04:54:48;9.82;;;1.80;;
40883;SDS011;26602;50.930;6.940;2022-07-29T04:55:50;10.77;;;1.70;;
40883;SDS011;26602;50.930;6.940;2022-07-29T04:56:52;10.35;;;1.60;;
40883;SDS011;26602;50.930;6.940;2022-07-29T04:57:54;10.35;;;1.88;;
40883;SDS011;26602;50.930;6.940;2022-07-29T04:58:55;11.65;;;2.00;;
40883;SDS011;26602;50.930;6.940;2022-07-29T04:59:57;10.30;;;1.92;;
40883;SDS011;26602;50.930;6.940;2022-07-29T05:00:58;9.10;;;1.52;;
40883;SDS011;26602;50.930;6.940;2022-07-29T05:02:00;10.73;;;1.70;;
40883;SDS011;26602;50.930;6.940;2022-07-29T05:03:02;9.05;;;1.88;;
40883;SDS011;26602;50.930;6.940;2022-07-29T05:04:04;10.93;;;1.65;;
40883;SDS011;26602;50.930;6.940;2022-07-29T05:05:05;9.85;;;1.63;;
40883;SDS011;26602;50.930;6.940;2022-07-29T05:06:07;10.05;;;1.48;;
40883;SDS011;26602;50.930;6.940;2022-07-29T05:07:09;10.48;;;1.73;;
40883;SDS011;26602;50.930;6.940;2022-07-29T05:08:12;9.30;;;1.80;;
40883;SDS011;26602;50.930;6.940;2022-07-29T05:09:14;10.35;;;1.80;;
40883;SDS011;26602;50.930;6.940;2022-07-29T05:10:18;9.50;;;1.52;;
40883;SDS011;26602;50.930;6.940;2022-07-29T05:11:20;9.68;;;1.58;;
40883;SDS011;26602;50.930;6.940;2022-07-29T05:12:21;9.45;;;1.80;;
40883;SDS011;26602;50.930;6.940;2022-07-29T05:13:23;10.35;;;1.67;;
40883;SDS011;26602;50.930;6.940;2022-07-29T05:14:25;9.13;;;1.67;;
40883;SDS011;26602;50.930;6.940;2022-07-29T05:15:27;9.23;;;1.50;;
40883;SDS011;26602;50.930;6.940;2022-07-29T05:16:28;9.27;;;1.65;;
40883;SDS011;26602;50.930;6.940;2022-07-29T05:17:30;10.60;;;1.75;;
40883;SDS011;26602;50.930;6.940;2022-07-29T05:18:31;11.07;;;2.05;;
40883;SDS011;26602;50.930;6.940;2022-07-29T05:19:34;10.05;;;1.77;;
40883;SDS011;26602;50.930;6.940;2022-07-29T05:20:35;9.85;;;1.73;;
40883;SDS011;26602;50.930;6.940;2022-07-29T05:21:37;9.52;;;1.50;;
40883;SDS011;26602;50.930;6.940;2022-07-29T05:22:38;9.93;;;1.88;;
40883;SDS011;26602;50.930;6.940;2022-07-29T05:23:42;9.90;;;1.95;;
40883;SDS011;26602;50.930;6.940;2022-07-29T05:24:43;10.43;;;1.80;;
40883;SDS011;26602;50.930;6.940;2022-07-29T05:25:45;10.85;;;1.85;;
40883;SDS011;26602;50.930;6.940;2022-07-29T05:26:47;10.15;;;1.70;;
40883;SDS011;26602;50.930;6.940;2022-07-29T05:27:49;11.13;;;2.03;;
40883;SDS011;26602;50.930;6.940;2022-07-29T05:28:50;9.50;;;1.65;;
40883;SDS011;26602;50.930;6.940;2022-07-29T05:29:53;8.93;;;1.55;;
40883;SDS011;26602;50.930;6.940;2022-07-29T05:30:55;9.18;;;1.60;;
40883;SDS011;26602;50.930;6.940;2022-07-29T05:31:57;10.07;;;1.90;;
40883;SDS011;26602;50.930;6.940;2022-07-29T05:32:58;10.73;;;1.80;;
40883;SDS011;26602;50.930;6.940;2022-07-29T05:34:00;11.98;;;1.88;;
40883;SDS011;26602;50.930;6.940;2022-07-29T05:35:02;9.40;;;1.65;;
40883;SDS011;26602;50.930;6.940;2022-07-29T05:36:05;10.05;;;1.98;;
40883;SDS011;26602;50.930;6.940;2022-07-29T05:37:06;7.63;;;1.35;;
40883;SDS011;26602;50.930;6.940;2022-07-29T05:38:09;7.45;;;1.50;;
40883;SDS011;26602;50.930;6.940;2022-07-29T05:39:11;10.77;;;1.88;;
40883;SDS011;26602;50.930;6.940;2022-07-29T05:40:14;8.32;;;1.40;;
40883;SDS011;26602;50.930;6.940;2022-07-29T05:41:15;9.07;;;1.73;;
40883;SDS011;26602;50.930;6.940;2022-07-29T05:42:17;9.57;;;1.70;;
40883;SDS011;26602;50.930;6.940;2022-07-29T05:43:18;10.18;;;1.50;;
40883;SDS011;26602;50.930;6.940;2022-07-29T05:44:20;9.25;;;1.38;;
40883;SDS011;26602;50.930;6.940;2022-07-29T05:45:22;11.52;;;2.00;;
40883;SDS011;26602;50.930;6.940;2022-07-29T05:46:24;9.45;;;1.60;;
40883;SDS011;26602;50.930;6.940;2022-07-29T05:47:25;10.75;;;1.90;;
40883;SDS011;26602;50.930;6.940;2022-07-29T05:48:28;8.63;;;1.45;;
40883;SDS011;26602;50.930;6.940;2022-07-29T05:49:29;12.73;;;2.08;;
40883;SDS011;26602;50.930;6.940;2022-07-29T05:50:31;9.30;;;1.80;;
40883;SDS011;26602;50.930;6.940;2022-07-29T05:51:32;9.82;;;1.58;;
40883;SDS011;26602;50.930;6.940;2022-07-29T05:52:34;8.63;;;1.73;;
40883;SDS011;26602;50.930;6.940;2022-07-29T05:53:37;11.98;;;1.90;;
40883;SDS011;26602;50.930;6.940;2022-07-29T05:54:41;9.23;;;1.63;;
40883;SDS011;26602;50.930;6.940;2022-07-29T05:55:44;8.80;;;1.50;;
40883;SDS011;26602;50.930;6.940;2022-07-29T05:56:45;10.32;;;1.75;;
40883;SDS011;26602;50.930;6.940;2022-07-29T05:57:47;8.73;;;1.58;;
40883;SDS011;26602;50.930;6.940;2022-07-29T05:58:49;11.30;;;1.90;;
40883;SDS011;26602;50.930;6.940;2022-07-29T05:59:50;9.85;;;1.40;;
40883;SDS011;26602;50.930;6.940;2022-07-29T06:00:53;10.05;;;1.60;;
40883;SDS011;26602;50.930;6.940;2022-07-29T06:01:59;10.10;;;1.65;;
40883;SDS011;26602;50.930;6.940;2022-07-29T06:03:01;9.55;;;1.52;;
40883;SDS011;26602;50.930;6.940;2022-07-29T06:04:02;10.02;;;1.63;;
40883;SDS011;26602;50.930;6.940;2022-07-29T06:05:05;7.90;;;1.33;;
40883;SDS011;26602;50.930;6.940;2022-07-29T06:06:07;9.52;;;1.60;;
40883;SDS011;26602;50.930;6.940;2022-07-29T06:07:08;9.35;;;1.58;;
40883;SDS011;26602;50.930;6.940;2022-07-29T06:08:11;10.50;;;1.77;;
40883;SDS011;26602;50.930;6.940;2022-07-29T06:09:12;10.18;;;1.75;;
40883;SDS011;26602;50.930;6.940;2022-07-29T06:10:16;9.25;;;1.55;;
40883;SDS011;26602;50.930;6.940;2022-07-29T06:11:17;9.68;;;1.45;;
40883;SDS011;26602;50.930;6.940;2022-07-29T06:12:20;9.18;;;1.48;;
40883;SDS011;26602;50.930;6.940;2022-07-29T06:13:21;11.77;;;1.65;;
40883;SDS011;26602;50.930;6.940;2022-07-29T06:14:23;9.20;;;1.63;;
40883;SDS011;26602;50.930;6.940;2022-07-29T06:15:24;9.82;;;1.60;;